Time;durP1;ratioP1;P1;durP2;ratioP2;P2;SDS_P1;SDS_P2;PMS_P1;PMS_P2;Temp;Humidity;BMP_temperature;BMP_pressure;BME280_temperature;BME280_humidity;BME280_pressure;Samples;Min_cycle;Max_cycle;Signal;HPM_P1;HPM_P2
2021/07/20 00:01:36;;;;;;;13.93;11.35;;;19.60;99.90;;;;;;5071177;28;20221;-61
2021/07/20 00:04:04;;;;;;;13.85;11.30;;;19.50;99.90;;;;;;5074753;28;20208;-61
2021/07/20 00:06:31;;;;;;;14.38;11.75;;;19.50;99.90;;;;;;5074886;28;20204;-62
2021/07/20 00:08:58;;;;;;;15.52;11.73;;;19.50;99.90;;;;;;5074718;28;20212;-61
2021/07/20 00:11:25;;;;;;;16.45;11.23;;;19.40;99.90;;;;;;5074396;28;20232;-63
2021/07/20 00:13:52;;;;;;;15.48;11.68;;;19.40;99.90;;;;;;5074416;28;20262;-62
2021/07/20 00:16:19;;;;;;;14.27;10.93;;;19.30;99.90;;;;;;5074886;28;20278;-60
2021/07/20 00:18:47;;;;;;;18.02;12.07;;;19.30;99.90;;;;;;5074950;28;20212;-61
2021/07/20 00:21:15;;;;;;;16.20;11.90;;;19.30;99.90;;;;;;5074519;28;20228;-61
2021/07/20 00:23:42;;;;;;;13.98;11.73;;;19.30;99.90;;;;;;5074388;28;20209;-61
2021/07/20 00:26:09;;;;;;;15.25;11.70;;;19.20;99.90;;;;;;5074190;28;20201;-61
2021/07/20 00:28:36;;;;;;;20.17;12.27;;;19.10;99.90;;;;;;5074074;28;20213;-61
2021/07/20 00:31:04;;;;;;;16.05;12.32;;;19.10;99.90;;;;;;5073944;28;20255;-61
2021/07/20 00:33:30;;;;;;;19.98;12.43;;;19.10;99.90;;;;;;5074177;28;20208;-61
2021/07/20 00:35:57;;;;;;;15.05;12.30;;;19.10;99.90;;;;;;5074060;28;20205;-61
2021/07/20 00:38:26;;;;;;;18.15;12.70;;;19.10;99.90;;;;;;5073914;28;20205;-61
2021/07/20 00:40:53;;;;;;;15.52;12.77;;;19.00;99.90;;;;;;5073676;28;20696;-61
2021/07/20 00:43:20;;;;;;;15.52;12.23;;;19.00;99.90;;;;;;5074034;28;20233;-62
2021/07/20 00:45:47;;;;;;;15.98;12.57;;;18.90;99.90;;;;;;5073800;28;20216;-62
2021/07/20 00:48:13;;;;;;;17.10;12.63;;;18.90;99.90;;;;;;5073699;28;20258;-62
2021/07/20 00:50:42;;;;;;;15.90;12.18;;;18.80;99.90;;;;;;5073851;28;20227;-61
2021/07/20 00:53:10;;;;;;;14.88;12.30;;;18.80;99.90;;;;;;5073914;28;20575;-61
2021/07/20 00:55:39;;;;;;;16.38;12.82;;;18.70;99.90;;;;;;5073428;28;20201;-62
2021/07/20 00:58:06;;;;;;;13.60;11.60;;;18.70;99.90;;;;;;5073741;28;20209;-61
2021/07/20 01:00:33;;;;;;;14.82;13.10;;;18.60;99.90;;;;;;5073663;28;20225;-62
2021/07/20 01:03:00;;;;;;;16.67;13.20;;;18.60;99.90;;;;;;5073584;28;20263;-61
2021/07/20 01:05:28;;;;;;;16.98;12.23;;;18.60;99.90;;;;;;5073434;28;20204;-61
2021/07/20 01:07:55;;;;;;;16.40;12.82;;;18.50;99.90;;;;;;5073295;28;20211;-62
2021/07/20 01:10:24;;;;;;;16.20;12.65;;;18.50;99.90;;;;;;5073565;28;20228;-61
2021/07/20 01:12:53;;;;;;;17.60;13.65;;;18.40;99.90;;;;;;5073442;28;20208;-62
2021/07/20 01:15:23;;;;;;;20.15;13.20;;;18.40;99.90;;;;;;5073276;28;20205;-61
2021/07/20 01:17:53;;;;;;;15.10;12.60;;;18.30;99.90;;;;;;5073630;28;20250;-62
2021/07/20 01:20:23;;;;;;;17.88;12.73;;;18.30;99.90;;;;;;5073508;28;20639;-62
2021/07/20 01:22:54;;;;;;;17.40;12.88;;;18.20;99.90;;;;;;5073624;28;20228;-62
2021/07/20 01:25:23;;;;;;;15.70;12.68;;;18.20;99.90;;;;;;5073674;28;20569;-61
2021/07/20 01:27:53;;;;;;;18.05;12.93;;;18.10;99.90;;;;;;5073319;28;20205;-62
2021/07/20 01:30:20;;;;;;;18.15;12.68;;;18.10;99.90;;;;;;5073014;28;20590;-62
2021/07/20 01:32:48;;;;;;;15.43;12.18;;;18.00;99.90;;;;;;5073156;28;20622;-62
2021/07/20 01:35:16;;;;;;;16.45;12.73;;;18.00;99.90;;;;;;5072990;28;20303;-62
2021/07/20 01:37:44;;;;;;;17.23;12.77;;;17.90;99.90;;;;;;5073095;28;20612;-62
2021/07/20 01:40:13;;;;;;;15.82;13.00;;;17.90;99.90;;;;;;5073036;28;20283;-61
2021/07/20 01:42:44;;;;;;;15.23;13.27;;;17.80;99.90;;;;;;5072986;28;20221;-62
2021/07/20 01:45:11;;;;;;;17.55;13.07;;;17.70;99.90;;;;;;5072613;28;20200;-62
2021/07/20 01:47:39;;;;;;;19.83;12.88;;;17.70;99.90;;;;;;5072542;28;20235;-62
2021/07/20 01:50:07;;;;;;;14.48;12.60;;;17.60;99.90;;;;;;5072761;28;20225;-62
2021/07/20 01:52:34;;;;;;;17.35;13.15;;;17.50;99.90;;;;;;5072630;28;20209;-62
2021/07/20 01:55:01;;;;;;;15.40;12.68;;;17.50;99.90;;;;;;5072640;28;20200;-62
2021/07/20 01:57:28;;;;;;;16.38;13.10;;;17.50;99.90;;;;;;5072813;28;20212;-62
2021/07/20 01:59:56;;;;;;;17.58;13.05;;;17.40;99.90;;;;;;5072226;28;20204;-62
2021/07/20 02:02:32;;;;;;;17.73;12.90;;;17.30;99.90;;;;;;5072211;28;20224;-61
2021/07/20 02:10:35;;;;;;;16.77;14.15;;;17.30;99.90;;;;;;5072034;28;20219;-61
2021/07/20 02:13:03;;;;;;;14.90;13.07;;;17.30;99.90;;;;;;5072242;28;20209;-61
2021/07/20 02:15:32;;;;;;;17.92;14.27;;;17.30;99.90;;;;;;5072071;28;20311;-61
2021/07/20 02:18:02;;;;;;;19.00;13.23;;;17.20;99.90;;;;;;5072313;28;20209;-62
2021/07/20 02:20:30;;;;;;;15.95;13.13;;;17.20;99.90;;;;;;5071936;28;20225;-61
2021/07/20 02:22:58;;;;;;;15.68;12.93;;;17.20;99.90;;;;;;5071722;28;20221;-60
2021/07/20 02:25:27;;;;;;;16.05;13.05;;;17.20;99.90;;;;;;5071991;28;20254;-60
2021/07/20 02:27:55;;;;;;;17.13;13.52;;;17.20;99.90;;;;;;5071791;28;20205;-61
2021/07/20 02:30:23;;;;;;;16.92;14.27;;;17.10;99.90;;;;;;5071974;28;20236;-60
2021/07/20 02:32:53;;;;;;;21.50;15.43;;;17.10;99.90;;;;;;5071920;28;20201;-60
2021/07/20 02:35:22;;;;;;;17.83;12.97;;;17.10;99.90;;;;;;5071733;28;20212;-60
2021/07/20 02:37:51;;;;;;;19.48;13.68;;;17.00;99.90;;;;;;5071856;28;20205;-60
2021/07/20 02:40:19;;;;;;;18.30;14.63;;;17.00;99.90;;;;;;5071669;28;20604;-61
2021/07/20 02:42:47;;;;;;;24.60;13.40;;;17.00;99.90;;;;;;5071612;28;20708;-60
2021/07/20 02:45:15;;;;;;;17.67;13.30;;;16.90;99.90;;;;;;5071521;28;20212;-63
2021/07/20 02:47:43;;;;;;;17.85;14.18;;;16.90;99.90;;;;;;5071559;28;20292;-63
2021/07/20 02:50:15;;;;;;;19.33;15.00;;;16.90;99.90;;;;;;5071371;28;20632;-63
2021/07/20 02:52:45;;;;;;;18.02;12.90;;;16.80;99.90;;;;;;5071666;28;20288;-63
2021/07/20 02:55:13;;;;;;;16.57;12.70;;;16.80;99.90;;;;;;5071424;28;20562;-63
2021/07/20 02:57:41;;;;;;;23.07;15.20;;;16.80;99.90;;;;;;5071440;28;20200;-61
2021/07/20 03:00:10;;;;;;;18.03;12.83;;;16.80;99.90;;;;;;5071792;28;20228;-61
2021/07/20 03:02:38;;;;;;;15.47;12.60;;;16.80;99.90;;;;;;5071250;28;20224;-63
2021/07/20 03:05:05;;;;;;;16.83;12.70;;;16.70;99.90;;;;;;5071562;28;20205;-61
2021/07/20 03:07:35;;;;;;;20.33;13.30;;;16.70;99.90;;;;;;5071197;28;20580;-61
2021/07/20 03:10:02;;;;;;;20.60;14.70;;;16.70;99.90;;;;;;5071167;28;20229;-61
2021/07/20 03:12:31;;;;;;;18.13;13.83;;;16.70;99.90;;;;;;5071396;28;20200;-61
2021/07/20 03:14:59;;;;;;;21.47;14.83;;;16.70;99.90;;;;;;5070906;28;20216;-60
2021/07/20 03:17:28;;;;;;;44.83;37.57;;;16.60;99.90;;;;;;5071441;28;20216;-61
2021/07/20 03:19:57;;;;;;;19.30;15.93;;;16.60;99.90;;;;;;5071006;28;20699;-62
2021/07/20 03:22:28;;;;;;;19.87;15.50;;;16.50;99.90;;;;;;5070989;28;20228;-60
2021/07/20 03:24:59;;;;;;;18.43;12.90;;;16.50;99.90;;;;;;5070907;28;20651;-60
2021/07/20 03:27:31;;;;;;;18.60;12.13;;;16.40;99.90;;;;;;5071213;28;20411;-61
2021/07/20 03:29:59;;;;;;;17.70;12.37;;;16.40;99.90;;;;;;5071278;28;20302;-61
2021/07/20 03:32:26;;;;;;;15.70;12.13;;;16.40;99.90;;;;;;5070939;28;20692;-60
2021/07/20 03:34:54;;;;;;;14.17;11.13;;;16.40;99.90;;;;;;5071628;28;20587;-61
2021/07/20 03:37:22;;;;;;;18.50;15.18;;;16.30;99.90;;;;;;5070214;28;20208;-60
2021/07/20 03:39:52;;;;;;;15.83;12.47;;;16.30;99.90;;;;;;5070667;28;20258;-61
2021/07/20 03:42:20;;;;;;;16.02;12.05;;;16.30;99.90;;;;;;5070658;28;20728;-61
2021/07/20 03:44:48;;;;;;;17.17;12.50;;;16.30;99.90;;;;;;5070845;28;20247;-60
2021/07/20 03:47:15;;;;;;;16.10;11.83;;;16.30;99.90;;;;;;5071009;28;20204;-62
2021/07/20 03:49:43;;;;;;;15.23;11.30;;;16.30;99.90;;;;;;5070816;28;20479;-61
2021/07/20 03:52:11;;;;;;;14.33;11.83;;;16.30;99.90;;;;;;5070811;28;20262;-62
2021/07/20 03:54:38;;;;;;;15.27;11.80;;;16.30;99.90;;;;;;5070696;28;20205;-61
2021/07/20 03:57:07;;;;;;;13.80;11.70;;;16.30;99.90;;;;;;5071505;28;20208;-61
2021/07/20 03:59:35;;;;;;;16.10;12.87;;;16.40;99.90;;;;;;5071255;28;20205;-62
2021/07/20 04:02:04;;;;;;;15.43;12.37;;;16.40;99.90;;;;;;5070880;28;20201;-61
2021/07/20 04:04:35;;;;;;;16.80;12.53;;;16.50;99.90;;;;;;5070730;28;20707;-61
2021/07/20 04:07:02;;;;;;;17.23;11.70;;;16.50;99.90;;;;;;5071134;28;20212;-61
2021/07/20 04:09:30;;;;;;;14.67;11.57;;;16.40;99.90;;;;;;5070491;28;20213;-61
2021/07/20 04:11:57;;;;;;;16.17;13.20;;;16.40;99.90;;;;;;5070569;28;20236;-61
2021/07/20 04:14:24;;;;;;;15.50;12.60;;;16.30;99.90;;;;;;5070433;28;20205;-61
2021/07/20 04:16:53;;;;;;;17.57;11.57;;;16.30;99.90;;;;;;5070463;28;20208;-61
2021/07/20 04:19:20;;;;;;;15.57;11.73;;;16.30;99.90;;;;;;5070271;28;20205;-61
2021/07/20 04:21:46;;;;;;;17.10;11.37;;;16.30;99.90;;;;;;5070429;28;20233;-61
2021/07/20 04:24:14;;;;;;;15.07;11.23;;;16.40;99.90;;;;;;5070151;28;20231;-61
2021/07/20 04:26:42;;;;;;;15.33;11.10;;;16.30;99.90;;;;;;5070547;28;20617;-61
2021/07/20 04:29:10;;;;;;;19.63;11.77;;;16.40;99.90;;;;;;5070216;28;20201;-62
2021/07/20 04:31:40;;;;;;;16.33;11.83;;;16.40;99.90;;;;;;5070094;28;20244;-61
2021/07/20 04:34:11;;;;;;;15.93;11.40;;;16.40;99.90;;;;;;5070728;28;20300;-61
2021/07/20 04:36:39;;;;;;;12.73;11.40;;;16.50;99.90;;;;;;5070791;28;20196;-61
2021/07/20 04:39:07;;;;;;;15.17;11.17;;;16.60;99.90;;;;;;5070039;28;20576;-61
2021/07/20 04:41:33;;;;;;;14.20;11.43;;;16.60;99.90;;;;;;5070259;28;20240;-61
2021/07/20 04:44:00;;;;;;;14.53;11.57;;;16.60;99.90;;;;;;5070231;28;20278;-61
2021/07/20 04:46:27;;;;;;;16.90;12.13;;;16.70;99.90;;;;;;5070113;28;20216;-61
2021/07/20 04:48:54;;;;;;;15.13;10.80;;;16.80;99.90;;;;;;5070984;28;20205;-61
2021/07/20 04:51:23;;;;;;;13.40;11.07;;;16.90;99.90;;;;;;5073643;28;20237;-61
2021/07/20 04:53:51;;;;;;;14.57;11.30;;;17.00;99.90;;;;;;5073529;28;20197;-62
2021/07/20 04:56:18;;;;;;;13.97;11.27;;;17.10;99.90;;;;;;5074053;28;20208;-62
2021/07/20 04:58:44;;;;;;;19.57;11.27;;;17.10;99.90;;;;;;5073456;28;20429;-62
2021/07/20 05:01:11;;;;;;;13.87;10.90;;;17.30;99.90;;;;;;5073547;28;20236;-61
2021/07/20 05:03:41;;;;;;;15.20;11.07;;;17.40;99.90;;;;;;5073160;28;20225;-61
2021/07/20 05:06:09;;;;;;;14.67;11.33;;;17.50;99.90;;;;;;5074159;28;20201;-61
2021/07/20 05:08:39;;;;;;;12.33;10.60;;;17.70;99.90;;;;;;5073449;28;20635;-61
2021/07/20 05:11:06;;;;;;;15.65;11.65;;;17.80;99.90;;;;;;5073423;28;20228;-61
2021/07/20 05:13:33;;;;;;;15.88;11.13;;;17.90;99.90;;;;;;5073086;28;20643;-61
2021/07/20 05:16:02;;;;;;;15.05;11.80;;;18.00;99.90;;;;;;5073407;28;20201;-62
2021/07/20 05:18:29;;;;;;;15.82;11.13;;;18.20;99.90;;;;;;5073915;28;20208;-63
2021/07/20 05:20:58;;;;;;;13.68;11.02;;;18.40;99.90;;;;;;5073155;28;20721;-63
2021/07/20 05:23:26;;;;;;;17.55;11.68;;;18.60;99.90;;;;;;5073064;28;20220;-62
2021/07/20 05:25:56;;;;;;;17.98;11.52;;;18.80;99.90;;;;;;5073103;28;20227;-61
2021/07/20 05:28:25;;;;;;;13.90;11.20;;;19.00;99.90;;;;;;5072996;28;20565;-61
2021/07/20 05:30:54;;;;;;;15.63;11.48;;;19.20;99.90;;;;;;5072833;28;20229;-61
2021/07/20 05:33:22;;;;;;;15.48;11.27;;;19.50;99.90;;;;;;5073093;28;20209;-61
2021/07/20 05:35:50;;;;;;;14.38;11.05;;;19.60;99.90;;;;;;5073078;28;20209;-61
2021/07/20 05:38:17;;;;;;;14.00;11.20;;;19.80;99.90;;;;;;5073133;28;20212;-61
2021/07/20 05:40:44;;;;;;;13.00;10.65;;;20.50;99.90;;;;;;5073144;28;20232;-61
2021/07/20 05:43:13;;;;;;;16.27;10.27;;;21.70;99.90;;;;;;5072993;28;20704;-61
2021/07/20 05:45:41;;;;;;;14.18;10.30;;;22.90;99.90;;;;;;5072403;28;20722;-61
2021/07/20 05:48:09;;;;;;;12.77;10.75;;;23.90;99.90;;;;;;5072446;28;20208;-62
2021/07/20 05:50:40;;;;;;;12.27;10.07;;;25.00;99.90;;;;;;5072326;28;20748;-61
2021/07/20 05:53:08;;;;;;;12.63;9.85;;;25.90;99.90;;;;;;5072486;28;20269;-60
2021/07/20 05:55:36;;;;;;;15.07;10.63;;;27.00;99.90;;;;;;5072190;28;20211;-60
2021/07/20 05:58:04;;;;;;;12.38;10.00;;;27.80;99.90;;;;;;5072349;28;20232;-59
2021/07/20 06:00:32;;;;;;;14.45;10.60;;;28.60;99.90;;;;;;5071750;28;20278;-60
2021/07/20 06:03:00;;;;;;;13.30;9.55;;;29.40;99.90;;;;;;5072020;28;20225;-60
2021/07/20 06:05:28;;;;;;;10.85;9.73;;;29.70;96.60;;;;;;5072068;28;20212;-60
2021/07/20 06:07:55;;;;;;;16.27;10.30;;;29.10;97.50;;;;;;5072255;28;20742;-60
2021/07/20 06:10:23;;;;;;;11.30;9.52;;;29.10;97.00;;;;;;5072652;28;20320;-60
2021/07/20 06:12:50;;;;;;;12.32;9.70;;;29.50;95.70;;;;;;5072157;28;20583;-60
2021/07/20 06:15:18;;;;;;;14.23;8.23;;;30.10;94.20;;;;;;5072449;28;20238;-58
2021/07/20 06:17:47;;;;;;;11.95;8.60;;;30.50;90.90;;;;;;5071921;28;20200;-59
2021/07/20 06:20:15;;;;;;;10.75;8.40;;;30.40;90.70;;;;;;5072016;28;20233;-59
2021/07/20 06:22:45;;;;;;;10.70;8.85;;;31.00;88.30;;;;;;5071996;28;20281;-59
2021/07/20 06:25:16;;;;;;;9.80;8.77;;;31.60;86.30;;;;;;5072319;28;20201;-59
2021/07/20 06:27:44;;;;;;;8.88;7.90;;;32.20;81.30;;;;;;5072596;28;20296;-59
2021/07/20 06:30:14;;;;;;;11.55;8.18;;;32.60;78.40;;;;;;5072234;28;20298;-59
2021/07/20 06:32:41;;;;;;;12.35;9.13;;;33.10;75.60;;;;;;5072384;28;20215;-59
2021/07/20 06:35:14;;;;;;;10.57;8.25;;;33.60;73.30;;;;;;5071932;28;20204;-59
2021/07/20 06:37:43;;;;;;;12.52;8.13;;;34.00;70.50;;;;;;5072240;28;20287;-59
2021/07/20 06:40:13;;;;;;;11.70;8.32;;;34.30;69.00;;;;;;5071667;28;20233;-59
2021/07/20 06:42:41;;;;;;;10.10;8.25;;;34.40;66.90;;;;;;5071908;28;20209;-59
2021/07/20 06:45:09;;;;;;;13.13;7.90;;;34.50;66.20;;;;;;5071569;28;20324;-59
2021/07/20 06:47:39;;;;;;;9.40;7.68;;;33.80;65.40;;;;;;5071269;28;20227;-59
2021/07/20 06:50:08;;;;;;;10.60;8.07;;;33.30;66.50;;;;;;5071204;28;20708;-59
2021/07/20 06:52:36;;;;;;;10.45;8.20;;;33.50;66.30;;;;;;5071499;28;20709;-59
2021/07/20 06:55:04;;;;;;;10.52;7.97;;;34.10;65.20;;;;;;5071550;28;20201;-59
2021/07/20 06:57:32;;;;;;;11.32;7.75;;;33.10;66.00;;;;;;5071569;28;20551;-59
2021/07/20 07:00:02;;;;;;;10.73;7.07;;;33.00;66.80;;;;;;5071035;28;20283;-58
2021/07/20 07:02:29;;;;;;;10.45;7.78;;;33.50;65.80;;;;;;5071236;28;20811;-58
2021/07/20 07:05:00;;;;;;;13.30;7.85;;;34.40;62.70;;;;;;5071118;28;20704;-58
2021/07/20 07:07:29;;;;;;;11.18;7.22;;;34.30;62.80;;;;;;5071499;28;20209;-58
2021/07/20 07:09:59;;;;;;;9.73;7.63;;;34.40;61.80;;;;;;5070989;28;20232;-59
2021/07/20 07:12:26;;;;;;;11.82;7.13;;;35.00;60.60;;;;;;5070403;28;20208;-59
2021/07/20 07:14:54;;;;;;;7.97;6.93;;;35.80;58.90;;;;;;5071061;28;20205;-59
2021/07/20 07:17:21;;;;;;;10.32;7.00;;;36.40;57.40;;;;;;5070944;28;20201;-59
2021/07/20 07:19:52;;;;;;;12.35;6.97;;;36.50;57.00;;;;;;5070516;28;20286;-58
2021/07/20 07:22:20;;;;;;;10.50;6.63;;;36.80;55.60;;;;;;5070859;28;20592;-58
2021/07/20 07:24:48;;;;;;;8.00;6.72;;;37.10;54.30;;;;;;5070571;28;20235;-59
2021/07/20 07:27:17;;;;;;;8.40;6.18;;;37.00;53.00;;;;;;5070756;28;20204;-58
2021/07/20 07:29:45;;;;;;;11.05;7.22;;;36.80;53.00;;;;;;5070725;28;20216;-59
2021/07/20 07:32:12;;;;;;;13.85;6.53;;;35.90;54.40;;;;;;5071184;28;20205;-58
2021/07/20 07:34:39;;;;;;;8.13;6.57;;;35.40;55.30;;;;;;5071035;28;20579;-58
2021/07/20 07:37:08;;;;;;;9.25;6.55;;;35.80;55.30;;;;;;5071167;28;20212;-58
2021/07/20 07:39:35;;;;;;;8.50;6.75;;;36.70;53.70;;;;;;5071243;28;20215;-58
2021/07/20 07:42:03;;;;;;;10.35;6.60;;;37.70;52.30;;;;;;5071602;28;20201;-58
2021/07/20 07:44:32;;;;;;;9.27;6.70;;;38.20;51.30;;;;;;5071368;28;20248;-58
2021/07/20 07:46:59;;;;;;;8.73;6.07;;;37.80;50.70;;;;;;5071307;28;20238;-59
2021/07/20 07:49:28;;;;;;;9.57;6.32;;;36.70;51.90;;;;;;5071275;28;20239;-58
2021/07/20 07:51:55;;;;;;;8.32;5.72;;;36.40;52.10;;;;;;5070981;28;20232;-58
2021/07/20 07:54:22;;;;;;;13.07;6.20;;;36.80;51.00;;;;;;5070603;28;20200;-59
2021/07/20 07:56:49;;;;;;;11.25;6.50;;;37.40;50.00;;;;;;5070805;28;20560;-58
2021/07/20 07:59:19;;;;;;;9.20;6.30;;;38.20;49.30;;;;;;5070747;28;20205;-59
2021/07/20 08:01:51;;;;;;;9.05;5.75;;;38.90;47.70;;;;;;5070605;28;20716;-59
2021/07/20 08:04:20;;;;;;;8.77;5.78;;;39.60;47.30;;;;;;5070961;28;20225;-59
2021/07/20 08:06:48;;;;;;;11.48;6.15;;;39.40;46.20;;;;;;5070548;28;20260;-60
2021/07/20 08:09:18;;;;;;;8.57;6.45;;;39.30;46.80;;;;;;5070673;28;20200;-59
2021/07/20 08:11:48;;;;;;;10.95;6.30;;;39.60;46.70;;;;;;5070740;28;20220;-59
2021/07/20 08:14:15;;;;;;;9.80;5.85;;;39.80;45.30;;;;;;5070339;28;20201;-59
2021/07/20 08:16:45;;;;;;;11.10;5.70;;;39.50;45.60;;;;;;5070641;28;20595;-58
2021/07/20 08:19:15;;;;;;;8.25;5.90;;;38.90;45.70;;;;;;5070205;28;20205;-59
2021/07/20 08:21:43;;;;;;;8.05;5.88;;;38.30;47.50;;;;;;5070520;28;20221;-59
2021/07/20 08:24:10;;;;;;;9.63;6.47;;;38.10;47.10;;;;;;5073524;28;20224;-59
2021/07/20 08:26:46;;;;;;;12.60;6.45;;;37.30;48.30;;;;;;5074212;28;20205;-59
2021/07/20 08:29:17;;;;;;;8.95;6.13;;;36.80;48.90;;;;;;5073983;28;20208;-58
2021/07/20 08:31:49;;;;;;;10.65;6.63;;;36.90;48.90;;;;;;5074328;28;20323;-58
2021/07/20 08:34:20;;;;;;;9.93;5.82;;;36.80;49.70;;;;;;5073780;28;20632;-59
2021/07/20 08:36:48;;;;;;;8.77;5.88;;;37.30;48.30;;;;;;5074245;28;20223;-59
2021/07/20 08:39:16;;;;;;;10.07;6.55;;;37.50;47.90;;;;;;5073846;28;20216;-59
2021/07/20 08:41:59;;;;;;;11.60;5.90;;;37.10;48.40;;;;;;5073880;28;20587;-58
2021/07/20 08:44:41;;;;;;;8.63;5.78;;;36.90;48.70;;;;;;5073958;28;20224;-60
2021/07/20 08:47:15;;;;;;;8.55;6.00;;;36.70;48.90;;;;;;5073884;28;20209;-60
2021/07/20 08:50:15;;;;;;;9.30;5.63;;;36.10;49.00;;;;;;5073668;28;20274;-61
2021/07/20 08:52:46;;;;;;;10.52;5.78;;;34.70;50.70;;;;;;5068695;28;20205;-58
2021/07/20 08:55:18;;;;;;;8.60;6.18;;;33.10;53.50;;;;;;5074030;28;20293;-60
2021/07/20 08:57:50;;;;;;;12.82;6.40;;;31.60;55.90;;;;;;5073327;28;20695;-58
2021/07/20 09:00:18;;;;;;;12.90;6.57;;;30.50;57.90;;;;;;5073624;28;20636;-58
2021/07/20 09:02:51;;;;;;;11.13;7.05;;;29.50;59.60;;;;;;5074015;28;20262;-58
2021/07/20 09:05:26;;;;;;;8.60;6.72;;;28.80;62.40;;;;;;5073387;28;20232;-59
2021/07/20 09:08:01;;;;;;;10.07;7.20;;;28.20;63.60;;;;;;5073983;28;20561;-58
2021/07/20 09:10:36;;;;;;;11.05;6.60;;;27.80;65.50;;;;;;5073607;28;20784;-58
2021/07/20 09:13:05;;;;;;;10.90;7.20;;;27.50;66.70;;;;;;5073519;28;20701;-59
2021/07/20 09:15:34;;;;;;;9.80;6.90;;;27.40;66.10;;;;;;5073051;28;20240;-59
2021/07/20 09:18:11;;;;;;;13.25;7.22;;;27.20;66.90;;;;;;5073399;28;20258;-59
2021/07/20 09:20:42;;;;;;;8.95;6.57;;;27.00;68.60;;;;;;5073661;28;20229;-58
2021/07/20 09:23:17;;;;;;;12.20;7.53;;;26.70;69.40;;;;;;5073450;28;20625;-59
2021/07/20 09:25:49;;;;;;;13.27;7.00;;;26.50;69.80;;;;;;5072844;28;20757;-59
2021/07/20 09:28:23;;;;;;;10.07;7.28;;;26.30;70.90;;;;;;5073190;28;20208;-59
2021/07/20 09:30:52;;;;;;;13.25;7.18;;;26.20;71.40;;;;;;5073791;28;20232;-59
2021/07/20 09:33:25;;;;;;;13.25;8.32;;;26.10;72.40;;;;;;5073209;28;20251;-59
2021/07/20 09:35:57;;;;;;;16.33;11.07;;;25.90;72.40;;;;;;5072502;28;20204;-60
2021/07/20 09:38:43;;;;;;;13.18;8.65;;;25.70;72.40;;;;;;5073017;28;20208;-60
2021/07/20 09:41:18;;;;;;;12.57;7.95;;;25.70;73.00;;;;;;5073001;28;20596;-59
2021/07/20 09:43:54;;;;;;;13.00;8.98;;;25.70;72.60;;;;;;5072685;28;20208;-59
2021/07/20 09:46:29;;;;;;;11.60;8.45;;;25.70;73.30;;;;;;5072773;28;20733;-59
2021/07/20 09:49:00;;;;;;;11.25;8.25;;;25.80;73.60;;;;;;5072557;28;20266;-59
2021/07/20 09:52:04;;;;;;;10.93;8.88;;;25.80;74.00;;;;;;5072920;28;20227;-58
2021/07/20 09:54:53;;;;;;;12.18;8.45;;;25.90;74.30;;;;;;5056717;28;20644;-59
2021/07/20 09:57:30;;;;;;;9.73;7.75;;;26.00;74.70;;;;;;5072424;28;20287;-59
2021/07/20 10:00:05;;;;;;;13.80;8.75;;;26.10;74.50;;;;;;5072386;28;20228;-60
2021/07/20 10:02:38;;;;;;;10.60;7.72;;;26.10;74.90;;;;;;5072689;28;20212;-59
2021/07/20 10:05:12;;;;;;;11.43;8.55;;;26.30;74.80;;;;;;5072300;28;20224;-59
2021/07/20 10:07:41;;;;;;;13.90;8.57;;;26.50;73.60;;;;;;5072693;28;20270;-59
2021/07/20 10:10:15;;;;;;;11.18;8.45;;;26.70;73.40;;;;;;5072720;28;20229;-59
2021/07/20 10:13:03;;;;;;;11.35;8.25;;;26.60;74.00;;;;;;5072365;28;20215;-59
2021/07/20 10:15:44;;;;;;;13.00;8.75;;;26.40;74.00;;;;;;5072283;28;20212;-59
2021/07/20 10:18:18;;;;;;;14.65;9.18;;;26.10;74.70;;;;;;5072090;28;20201;-59
2021/07/20 10:20:49;;;;;;;12.25;10.27;;;25.90;75.80;;;;;;5072582;28;20270;-66
2021/07/20 10:23:21;;;;;;;12.57;9.32;;;25.90;77.00;;;;;;5072362;28;20197;-59
2021/07/20 10:25:57;;;;;;;13.38;8.85;;;26.00;77.10;;;;;;5071911;28;20229;-59
2021/07/20 10:28:29;;;;;;;12.63;9.80;;;26.10;77.00;;;;;;5071847;28;20208;-59
2021/07/20 10:31:02;;;;;;;13.73;9.00;;;26.10;75.30;;;;;;5071545;28;20255;-59
2021/07/20 10:33:36;;;;;;;14.00;9.75;;;26.10;75.40;;;;;;5072008;28;20219;-59
2021/07/20 10:36:06;;;;;;;14.73;9.77;;;26.20;75.00;;;;;;5071738;28;20572;-59
2021/07/20 10:38:35;;;;;;;15.48;9.60;;;26.40;75.20;;;;;;5072292;28;20238;-59
2021/07/20 10:41:06;;;;;;;12.38;8.88;;;26.60;73.90;;;;;;5071967;28;20228;-59
2021/07/20 10:43:35;;;;;;;15.80;10.23;;;26.70;73.50;;;;;;5072324;28;20205;-59
2021/07/20 10:46:05;;;;;;;12.43;10.02;;;26.50;74.30;;;;;;5071613;28;20700;-59
2021/07/20 10:48:33;;;;;;;14.25;9.85;;;26.40;74.70;;;;;;5072206;28;20200;-59
2021/07/20 10:51:06;;;;;;;12.27;9.93;;;26.40;74.60;;;;;;5072000;28;20228;-59
2021/07/20 10:53:38;;;;;;;13.63;10.15;;;26.60;73.60;;;;;;5071297;28;20209;-59
2021/07/20 10:56:11;;;;;;;13.45;9.50;;;26.80;72.90;;;;;;5071318;28;20258;-59
2021/07/20 10:58:51;;;;;;;13.52;10.43;;;26.90;72.60;;;;;;5071385;28;20722;-59
2021/07/20 11:01:19;;;;;;;13.57;9.93;;;27.00;72.50;;;;;;5070910;28;20311;-59
2021/07/20 11:03:58;;;;;;;13.45;10.68;;;27.20;71.50;;;;;;5071022;28;20209;-59
2021/07/20 11:06:25;;;;;;;14.02;9.98;;;27.30;70.40;;;;;;5070867;28;20571;-59
2021/07/20 11:08:56;;;;;;;14.73;9.73;;;27.30;70.80;;;;;;5071170;28;20282;-59
2021/07/20 11:11:28;;;;;;;15.20;10.00;;;27.50;69.80;;;;;;5071433;28;20229;-59
2021/07/20 11:13:56;;;;;;;13.32;10.32;;;27.70;69.90;;;;;;5071576;28;20204;-59
2021/07/20 11:16:24;;;;;;;14.73;10.02;;;28.00;68.40;;;;;;5071942;28;20203;-58
2021/07/20 11:18:54;;;;;;;16.98;9.98;;;28.00;69.30;;;;;;5071582;28;20211;-59
2021/07/20 11:21:24;;;;;;;11.70;9.70;;;28.00;68.00;;;;;;5071079;28;20282;-59
2021/07/20 11:23:52;;;;;;;17.08;10.88;;;27.90;67.00;;;;;;5070811;28;20702;-60
2021/07/20 11:26:21;;;;;;;13.90;9.57;;;27.70;66.70;;;;;;5070831;28;20267;-59
2021/07/20 11:28:50;;;;;;;15.45;10.10;;;27.60;67.70;;;;;;5070985;28;20209;-59
2021/07/20 11:31:22;;;;;;;13.40;9.73;;;27.50;68.50;;;;;;5070764;28;20240;-59
2021/07/20 11:33:53;;;;;;;14.40;9.88;;;27.60;68.40;;;;;;5071338;28;20213;-59
2021/07/20 11:36:23;;;;;;;14.52;10.13;;;27.60;68.60;;;;;;5070965;28;20208;-60
2021/07/20 11:38:53;;;;;;;15.32;10.25;;;27.50;67.60;;;;;;5070729;28;20613;-61
2021/07/20 11:41:31;;;;;;;14.18;10.93;;;27.50;66.70;;;;;;5070566;28;20285;-59
2021/07/20 11:44:16;;;;;;;16.00;10.30;;;27.50;66.50;;;;;;5071015;28;20239;-60
2021/07/20 11:46:49;;;;;;;14.00;10.65;;;27.50;65.90;;;;;;5071021;28;20220;-59
2021/07/20 11:49:25;;;;;;;15.60;10.23;;;27.30;66.70;;;;;;5070915;28;20200;-61
2021/07/20 11:52:01;;;;;;;13.98;9.90;;;27.20;66.90;;;;;;5070575;28;20623;-60
2021/07/20 11:54:36;;;;;;;15.07;10.35;;;27.10;66.50;;;;;;5070542;28;20695;-60
2021/07/20 11:57:21;;;;;;;13.98;9.52;;;26.90;66.60;;;;;;5070802;28;20578;-60
2021/07/20 12:00:20;;;;;;;11.57;9.32;;;26.80;66.50;;;;;;5074522;28;20254;-59
2021/07/20 12:03:10;;;;;;;14.25;9.45;;;26.80;65.20;;;;;;5062845;28;20299;-60
2021/07/20 12:06:12;;;;;;;15.45;9.30;;;26.80;66.10;;;;;;5074710;28;20220;-59
2021/07/20 12:08:53;;;;;;;11.30;9.25;;;26.80;66.20;;;;;;5074292;28;20215;-59
2021/07/20 12:11:23;;;;;;;13.23;9.45;;;26.80;63.20;;;;;;5074775;28;20221;-59
2021/07/20 12:13:51;;;;;;;13.75;8.85;;;26.90;64.60;;;;;;5074518;28;20440;-59
2021/07/20 12:16:21;;;;;;;12.73;9.40;;;27.10;67.20;;;;;;5074631;28;20201;-58
2021/07/20 12:18:53;;;;;;;11.65;8.73;;;27.20;65.60;;;;;;5074353;28;20278;-59
2021/07/20 12:21:21;;;;;;;11.98;8.70;;;27.20;65.90;;;;;;5074413;28;20562;-59
2021/07/20 12:23:51;;;;;;;10.80;7.97;;;27.20;65.60;;;;;;5074310;28;20212;-59
2021/07/20 12:26:19;;;;;;;12.27;8.50;;;27.10;65.20;;;;;;5074106;28;20324;-59
2021/07/20 12:28:47;;;;;;;11.20;8.02;;;27.10;64.30;;;;;;5074089;28;20205;-59
2021/07/20 12:31:14;;;;;;;10.32;8.05;;;27.00;64.20;;;;;;5073844;28;20240;-59
2021/07/20 12:33:44;;;;;;;11.75;8.07;;;26.90;64.50;;;;;;5074142;28;20262;-60
2021/07/20 12:36:13;;;;;;;11.52;7.43;;;27.00;64.20;;;;;;5073822;28;20565;-60
2021/07/20 12:38:40;;;;;;;9.35;7.57;;;27.10;63.30;;;;;;5073650;28;20255;-59
2021/07/20 12:41:08;;;;;;;10.63;8.05;;;27.20;61.80;;;;;;5073735;28;20276;-60
2021/07/20 12:43:36;;;;;;;11.20;7.38;;;27.20;62.40;;;;;;5074316;28;20223;-59
2021/07/20 12:46:11;;;;;;;11.30;8.35;;;27.10;65.10;;;;;;5073875;28;20220;-59
2021/07/20 12:48:47;;;;;;;13.73;8.10;;;27.10;64.30;;;;;;5073701;28;20236;-59
2021/07/20 12:51:15;;;;;;;12.18;7.43;;;27.20;64.30;;;;;;5073847;28;20248;-60
2021/07/20 12:53:42;;;;;;;10.90;7.50;;;27.30;63.50;;;;;;5073607;28;20209;-59